Libuse, LA (71348)

5:32 PM CST on January 17, 2017 (GMT -0600)
Tiffany Lane | | Change Station

Elev 125 ft 31.36 °N, 92.35 °W | Updated 13 minutes ago

Overcast
Overcast
59.3 °F
Feels Like 59.3 °F
N
5.0
Wind Variable Wind from NW

Today
High -- | Low -- °F
--% Chance of Precip.
Yesterday
High -- | Low -- °F
Precip. -- in
Pressure 30.12 in
Visibility 10.0 miles
Clouds Overcast 600 ft
Dew Point 58 °F
Humidity 96%
Rainfall 0.00 in
Snow Depth Not available.
7:08 AM 5:31 PM
Waning Gibbous, 68% visible
METAR KESF 172253Z AUTO 36004KT 10SM OVC006 16/14 A3012 RMK AO2 SLP198 T01560144
Pressure 30.12 in
Visibility 10.0 miles
Clouds Overcast 600 ft
Dew Point 58 °F
Humidity 96%
Rainfall 0.00 in
Snow Depth Not available.
7:08 AM 5:31 PM
Waning Gibbous, 68% visible
METAR KESF 172253Z AUTO 36004KT 10SM OVC006 16/14 A3012 RMK AO2 SLP198 T01560144

Get Your Daily Forecast Email!

Thanks for signing up!

Be on the lookout for a verification email in your inbox.

You'll start receiving the daily forecast at 8 AM.

×

10-Day Weather Forecast

Almanac

Astronomy

Jan. 17, 2017 Rise Set
Actual Time
Civil Twilight
Nautical Twilight
Astronomical Twilight
Moon
Length of Visible Light
Length of Day
Tomorrow will be .
, % of the Moon is Illuminated

Today's Extremes

State Highs State Lows

Community

WunderPhotos

Upload Photos

1,962,540 photos uploaded!

WunderBlog® & News

Nearby

Air Quality

  Air Quality AQ Index Pollutant
Not available.

Snow Depth

Station Depth Elevation

Earthquake Activity

City Distance Mag. Time & Date
Minimum magnitude displayed is 2.5.

Coastal Water Temperatures

Place Temperature

Stations

Nearby Weather Stations

Station Location Temp. Windchill Dew Point Humidity Wind Precip. Elev Updated Type
                   

Watches & Warnings

There are currently no watches in effect.